sensor_id;sensor_type;location;lat;lon;timestamp;pressure;altitude;pressure_sealevel;temperature;humidity
5062;BME280;2351;50.812;12.872;2023-05-03T00:01:52;98907.84;;;6.38;77.82
5062;BME280;2351;50.812;12.872;2023-05-03T00:04:24;98911.66;;;6.32;78.32
5062;BME280;2351;50.812;12.872;2023-05-03T00:06:56;98917.19;;;6.27;78.89
5062;BME280;2351;50.812;12.872;2023-05-03T00:09:27;98905.81;;;6.27;79.06
5062;BME280;2351;50.812;12.872;2023-05-03T00:11:59;98909.28;;;6.27;79.05
5062;BME280;2351;50.812;12.872;2023-05-03T00:14:32;98908.94;;;6.17;79.51
5062;BME280;2351;50.812;12.872;2023-05-03T00:17:04;98909.66;;;6.20;79.44
5062;BME280;2351;50.812;12.872;2023-05-03T00:19:35;98911.72;;;6.14;79.55
5062;BME280;2351;50.812;12.872;2023-05-03T00:22:07;98910.84;;;6.14;80.02
5062;BME280;2351;50.812;12.872;2023-05-03T00:24:39;98903.06;;;6.12;80.08
5062;BME280;2351;50.812;12.872;2023-05-03T00:27:11;98903.06;;;6.12;80.11
5062;BME280;2351;50.812;12.872;2023-05-03T00:29:44;98905.84;;;6.09;79.94
5062;BME280;2351;50.812;12.872;2023-05-03T00:32:15;98909.31;;;6.10;79.94
5062;BME280;2351;50.812;12.872;2023-05-03T00:34:51;98908.06;;;6.17;79.59
5062;BME280;2351;50.812;12.872;2023-05-03T00:37:26;98913.72;;;6.09;79.57
5062;BME280;2351;50.812;12.872;2023-05-03T00:39:59;98898.63;;;6.13;79.43
5062;BME280;2351;50.812;12.872;2023-05-03T00:42:32;98903.06;;;6.12;79.35
5062;BME280;2351;50.812;12.872;2023-05-03T00:45:07;98904.06;;;6.10;79.17
5062;BME280;2351;50.812;12.872;2023-05-03T00:47:39;98907.78;;;6.06;78.85
5062;BME280;2351;50.812;12.872;2023-05-03T00:50:11;98900.84;;;6.05;79.03
5062;BME280;2351;50.812;12.872;2023-05-03T00:52:44;98897.19;;;6.07;78.81
5062;BME280;2351;50.812;12.872;2023-05-03T00:55:16;98895.41;;;6.08;78.93
5062;BME280;2351;50.812;12.872;2023-05-03T00:57:48;98897.28;;;6.06;78.70
5062;BME280;2351;50.812;12.872;2023-05-03T01:00:21;98895.75;;;6.01;78.65
5062;BME280;2351;50.812;12.872;2023-05-03T01:02:53;98897.28;;;6.06;78.60
5062;BME280;2351;50.812;12.872;2023-05-03T01:05:27;98900.75;;;6.06;78.53
5062;BME280;2351;50.812;12.872;2023-05-03T01:08:09;98900.50;;;6.11;78.44
5062;BME280;2351;50.812;12.872;2023-05-03T01:10:45;98896.16;;;6.10;78.56
5062;BME280;2351;50.812;12.872;2023-05-03T01:13:25;98890.13;;;6.08;78.52
5062;BME280;2351;50.812;12.872;2023-05-03T01:16:05;98893.03;;;6.03;78.15
5062;BME280;2351;50.812;12.872;2023-05-03T01:18:41;98895.50;;;5.88;77.57
5062;BME280;2351;50.812;12.872;2023-05-03T01:21:16;98903.38;;;5.88;77.95
5062;BME280;2351;50.812;12.872;2023-05-03T01:23:54;98896.19;;;5.75;77.20
5062;BME280;2351;50.812;12.872;2023-05-03T01:26:28;98888.31;;;5.75;77.86
5062;BME280;2351;50.812;12.872;2023-05-03T01:29:00;98892.34;;;5.82;78.02
5062;BME280;2351;50.812;12.872;2023-05-03T01:31:35;98895.75;;;5.84;77.65
5062;BME280;2351;50.812;12.872;2023-05-03T01:34:17;98899.44;;;5.80;77.65
5062;BME280;2351;50.812;12.872;2023-05-03T01:36:53;98889.72;;;5.82;77.77
5062;BME280;2351;50.812;12.872;2023-05-03T01:39:31;98889.47;;;5.86;77.75
5062;BME280;2351;50.812;12.872;2023-05-03T01:42:07;98886.59;;;5.91;77.44
5062;BME280;2351;50.812;12.872;2023-05-03T01:44:39;98890.16;;;5.90;77.72
5062;BME280;2351;50.812;12.872;2023-05-03T01:47:12;98883.19;;;5.89;77.50
5062;BME280;2351;50.812;12.872;2023-05-03T01:49:44;98879.00;;;5.85;77.33
5062;BME280;2351;50.812;12.872;2023-05-03T01:52:16;98877.66;;;5.78;77.27
5062;BME280;2351;50.812;12.872;2023-05-03T01:54:48;98881.38;;;5.73;77.57
5062;BME280;2351;50.812;12.872;2023-05-03T01:57:21;98878.88;;;5.70;77.45
5062;BME280;2351;50.812;12.872;2023-05-03T01:59:52;98881.00;;;5.64;77.72
5062;BME280;2351;50.812;12.872;2023-05-03T02:02:24;98874.03;;;5.63;77.94
5062;BME280;2351;50.812;12.872;2023-05-03T02:04:56;98872.34;;;5.62;77.68
5062;BME280;2351;50.812;12.872;2023-05-03T02:07:28;98871.50;;;5.61;77.77
5062;BME280;2351;50.812;12.872;2023-05-03T02:09:59;98873.00;;;5.65;77.84
5062;BME280;2351;50.812;12.872;2023-05-03T02:12:33;98877.44;;;5.65;77.93
5062;BME280;2351;50.812;12.872;2023-05-03T02:15:05;98876.56;;;5.64;77.61
5062;BME280;2351;50.812;12.872;2023-05-03T02:17:37;98879.97;;;5.66;77.62
5062;BME280;2351;50.812;12.872;2023-05-03T02:20:10;98882.53;;;5.68;77.82
5062;BME280;2351;50.812;12.872;2023-05-03T02:22:41;98884.16;;;5.70;77.81
5062;BME280;2351;50.812;12.872;2023-05-03T02:25:13;98891.34;;;5.67;77.81
5062;BME280;2351;50.812;12.872;2023-05-03T02:27:46;98879.03;;;5.67;77.76
5062;BME280;2351;50.812;12.872;2023-05-03T02:30:18;98884.22;;;5.69;77.69
5062;BME280;2351;50.812;12.872;2023-05-03T02:32:50;98885.06;;;5.69;77.82
5062;BME280;2351;50.812;12.872;2023-05-03T02:35:21;98883.38;;;5.68;77.76
5062;BME280;2351;50.812;12.872;2023-05-03T02:37:53;98888.63;;;5.68;78.11
5062;BME280;2351;50.812;12.872;2023-05-03T02:40:25;98887.94;;;5.65;78.21
5062;BME280;2351;50.812;12.872;2023-05-03T02:42:58;98888.97;;;5.62;78.02
5062;BME280;2351;50.812;12.872;2023-05-03T02:45:31;98886.53;;;5.57;78.42
5062;BME280;2351;50.812;12.872;2023-05-03T02:48:05;98890.09;;;5.56;78.48
5062;BME280;2351;50.812;12.872;2023-05-03T02:50:37;98894.50;;;5.56;78.55
5062;BME280;2351;50.812;12.872;2023-05-03T02:53:09;98895.34;;;5.56;78.70
5062;BME280;2351;50.812;12.872;2023-05-03T02:55:41;98892.03;;;5.53;78.69
5062;BME280;2351;50.812;12.872;2023-05-03T02:58:14;98892.19;;;5.50;79.22
5062;BME280;2351;50.812;12.872;2023-05-03T03:00:46;98896.66;;;5.48;79.33
5062;BME280;2351;50.812;12.872;2023-05-03T03:03:17;98886.31;;;5.45;79.34
5062;BME280;2351;50.812;12.872;2023-05-03T03:05:49;98894.34;;;5.41;79.49
5062;BME280;2351;50.812;12.872;2023-05-03T03:08:21;98897.28;;;5.35;79.69
5062;BME280;2351;50.812;12.872;2023-05-03T03:10:53;98893.88;;;5.33;79.71
5062;BME280;2351;50.812;12.872;2023-05-03T03:13:26;98895.59;;;5.34;79.64
5062;BME280;2351;50.812;12.872;2023-05-03T03:15:58;98899.91;;;5.35;79.73
5062;BME280;2351;50.812;12.872;2023-05-03T03:18:30;98902.53;;;5.35;79.89
5062;BME280;2351;50.812;12.872;2023-05-03T03:21:02;98902.44;;;5.37;79.60
5062;BME280;2351;50.812;12.872;2023-05-03T03:23:34;98905.94;;;5.37;79.69
5062;BME280;2351;50.812;12.872;2023-05-03T03:26:05;98915.44;;;5.40;79.61
5062;BME280;2351;50.812;12.872;2023-05-03T03:28:38;98904.09;;;5.39;79.58
5062;BME280;2351;50.812;12.872;2023-05-03T03:31:10;98913.50;;;5.43;79.55
5062;BME280;2351;50.812;12.872;2023-05-03T03:33:42;98916.13;;;5.43;79.68
5062;BME280;2351;50.812;12.872;2023-05-03T03:36:14;98924.78;;;5.46;79.85
5062;BME280;2351;50.812;12.872;2023-05-03T03:38:46;98921.22;;;5.47;79.64
5062;BME280;2351;50.812;12.872;2023-05-03T03:41:18;98925.53;;;5.48;79.43
5062;BME280;2351;50.812;12.872;2023-05-03T03:43:51;98921.22;;;5.47;79.71
5062;BME280;2351;50.812;12.872;2023-05-03T03:46:23;98921.06;;;5.50;79.45
5062;BME280;2351;50.812;12.872;2023-05-03T03:48:55;98931.56;;;5.50;79.81
5062;BME280;2351;50.812;12.872;2023-05-03T03:51:26;98936.13;;;5.46;79.79
5062;BME280;2351;50.812;12.872;2023-05-03T03:53:58;98943.25;;;5.44;79.63
5062;BME280;2351;50.812;12.872;2023-05-03T03:56:30;98937.22;;;5.42;79.82
5062;BME280;2351;50.812;12.872;2023-05-03T03:59:03;98938.13;;;5.41;79.57
5062;BME280;2351;50.812;12.872;2023-05-03T04:01:35;98934.88;;;5.36;79.91
5062;BME280;2351;50.812;12.872;2023-05-03T04:04:06;98947.38;;;5.31;80.20
5062;BME280;2351;50.812;12.872;2023-05-03T04:06:38;98944.34;;;5.21;80.84
5062;BME280;2351;50.812;12.872;2023-05-03T04:09:10;98951.59;;;5.16;81.38
5062;BME280;2351;50.812;12.872;2023-05-03T04:11:42;98959.47;;;5.16;81.30
5062;BME280;2351;50.812;12.872;2023-05-03T04:14:15;98951.75;;;5.12;81.98
5062;BME280;2351;50.812;12.872;2023-05-03T04:16:46;98957.06;;;5.11;81.89
5062;BME280;2351;50.812;12.872;2023-05-03T04:19:18;98963.22;;;5.10;82.38
5062;BME280;2351;50.812;12.872;2023-05-03T04:21:51;98965.84;;;5.10;82.51
5062;BME280;2351;50.812;12.872;2023-05-03T04:24:23;98963.09;;;5.13;82.86
5062;BME280;2351;50.812;12.872;2023-05-03T04:26:54;98972.66;;;5.14;82.75
5062;BME280;2351;50.812;12.872;2023-05-03T04:29:29;98975.50;;;5.09;83.22
5062;BME280;2351;50.812;12.872;2023-05-03T04:32:01;98973.16;;;5.03;83.35
5062;BME280;2351;50.812;12.872;2023-05-03T04:34:33;98977.56;;;5.03;83.55
5062;BME280;2351;50.812;12.872;2023-05-03T04:37:05;98969.06;;;4.97;83.80
5062;BME280;2351;50.812;12.872;2023-05-03T04:39:38;98978.13;;;4.90;83.69
5062;BME280;2351;50.812;12.872;2023-05-03T04:42:09;98980.84;;;4.89;83.82
5062;BME280;2351;50.812;12.872;2023-05-03T04:44:43;98983.94;;;4.97;84.08
5062;BME280;2351;50.812;12.872;2023-05-03T04:47:15;98984.94;;;4.94;83.51
5062;BME280;2351;50.812;12.872;2023-05-03T04:49:47;98990.13;;;4.96;83.38
5062;BME280;2351;50.812;12.872;2023-05-03T04:52:19;98988.25;;;4.98;83.49
5062;BME280;2351;50.812;12.872;2023-05-03T04:54:51;98995.22;;;4.99;83.45
5062;BME280;2351;50.812;12.872;2023-05-03T04:57:23;98990.69;;;5.03;83.08
5062;BME280;2351;50.812;12.872;2023-05-03T04:59:56;98989.63;;;5.07;83.02
5062;BME280;2351;50.812;12.872;2023-05-03T05:02:28;98990.34;;;5.10;83.01
5062;BME280;2351;50.812;12.872;2023-05-03T05:05:00;98993.94;;;5.08;82.66
5062;BME280;2351;50.812;12.872;2023-05-03T05:07:31;98995.34;;;5.15;82.75
5062;BME280;2351;50.812;12.872;2023-05-03T05:10:04;98996.50;;;5.09;82.42
5062;BME280;2351;50.812;12.872;2023-05-03T05:12:36;99005.16;;;5.11;82.09
5062;BME280;2351;50.812;12.872;2023-05-03T05:15:10;99003.88;;;5.20;82.25
5062;BME280;2351;50.812;12.872;2023-05-03T05:17:42;99013.38;;;5.23;81.55
5062;BME280;2351;50.812;12.872;2023-05-03T05:20:14;99012.44;;;5.24;81.89
5062;BME280;2351;50.812;12.872;2023-05-03T05:22:45;99013.63;;;5.36;81.79
5062;BME280;2351;50.812;12.872;2023-05-03T05:25:17;99013.13;;;5.47;81.58
5062;BME280;2351;50.812;12.872;2023-05-03T05:27:49;99011.91;;;5.54;81.13
5062;BME280;2351;50.812;12.872;2023-05-03T05:30:22;99010.28;;;5.51;79.32
5062;BME280;2351;50.812;12.872;2023-05-03T05:32:54;99016.88;;;5.60;80.42
5062;BME280;2351;50.812;12.872;2023-05-03T05:35:26;99015.72;;;5.66;79.52
5062;BME280;2351;50.812;12.872;2023-05-03T05:37:57;99021.91;;;5.65;76.79
5062;BME280;2351;50.812;12.872;2023-05-03T05:40:29;99021.94;;;5.63;76.39
5062;BME280;2351;50.812;12.872;2023-05-03T05:43:01;99023.22;;;5.73;76.14
5062;BME280;2351;50.812;12.872;2023-05-03T05:45:34;99017.28;;;5.70;73.78
5062;BME280;2351;50.812;12.872;2023-05-03T05:48:06;99025.16;;;5.87;73.90
5062;BME280;2351;50.812;12.872;2023-05-03T05:50:38;99028.84;;;6.02;72.83
5062;BME280;2351;50.812;12.872;2023-05-03T05:53:10;99033.41;;;6.16;73.42
5062;BME280;2351;50.812;12.872;2023-05-03T05:55:42;99030.69;;;6.00;70.22
5062;BME280;2351;50.812;12.872;2023-05-03T05:58:14;99029.03;;;5.98;70.09
5062;BME280;2351;50.812;12.872;2023-05-03T06:00:47;99032.16;;;6.06;70.12
5062;BME280;2351;50.812;12.872;2023-05-03T06:03:18;99031.53;;;6.18;71.31
5062;BME280;2351;50.812;12.872;2023-05-03T06:05:50;99039.59;;;6.15;68.93
5062;BME280;2351;50.812;12.872;2023-05-03T06:08:22;99039.41;;;6.18;69.50
5062;BME280;2351;50.812;12.872;2023-05-03T06:10:53;99041.06;;;6.21;68.78
5062;BME280;2351;50.812;12.872;2023-05-03T06:13:25;99039.13;;;6.25;69.94
5062;BME280;2351;50.812;12.872;2023-05-03T06:15:58;99037.56;;;6.38;69.10
5062;BME280;2351;50.812;12.872;2023-05-03T06:18:30;99043.97;;;6.50;68.98
5062;BME280;2351;50.812;12.872;2023-05-03T06:21:02;99036.69;;;6.55;68.30
5062;BME280;2351;50.812;12.872;2023-05-03T06:23:34;99035.03;;;6.70;67.99
5062;BME280;2351;50.812;12.872;2023-05-03T06:26:07;99036.94;;;6.84;68.61
5062;BME280;2351;50.812;12.872;2023-05-03T06:28:39;99032.88;;;6.95;68.12
5062;BME280;2351;50.812;12.872;2023-05-03T06:31:12;99035.03;;;7.20;68.63
5062;BME280;2351;50.812;12.872;2023-05-03T06:33:43;99033.91;;;7.40;67.26
5062;BME280;2351;50.812;12.872;2023-05-03T06:36:15;99028.50;;;7.27;65.46
5062;BME280;2351;50.812;12.872;2023-05-03T06:38:47;99030.19;;;7.28;64.33
5062;BME280;2351;50.812;12.872;2023-05-03T06:41:18;99031.81;;;7.47;65.71
5062;BME280;2351;50.812;12.872;2023-05-03T06:43:50;99038.13;;;7.75;66.13
5062;BME280;2351;50.812;12.872;2023-05-03T06:46:23;99030.78;;;7.96;64.43
5062;BME280;2351;50.812;12.872;2023-05-03T06:48:55;99036.41;;;7.90;62.74
5062;BME280;2351;50.812;12.872;2023-05-03T06:51:27;99026.19;;;7.83;61.24
5062;BME280;2351;50.812;12.872;2023-05-03T06:54:01;99027.28;;;7.95;61.65
5062;BME280;2351;50.812;12.872;2023-05-03T06:56:36;99024.22;;;8.03;62.53
5062;BME280;2351;50.812;12.872;2023-05-03T06:59:07;99031.63;;;8.27;63.15
5062;BME280;2351;50.812;12.872;2023-05-03T07:01:40;99030.38;;;8.63;62.03
5062;BME280;2351;50.812;12.872;2023-05-03T07:04:12;99024.16;;;8.79;58.22
5062;BME280;2351;50.812;12.872;2023-05-03T07:06:44;99020.50;;;8.81;59.48
5062;BME280;2351;50.812;12.872;2023-05-03T07:09:16;99020.78;;;8.91;58.38
5062;BME280;2351;50.812;12.872;2023-05-03T07:11:48;99022.47;;;8.78;57.66
5062;BME280;2351;50.812;12.872;2023-05-03T07:14:21;99023.81;;;8.70;59.02
5062;BME280;2351;50.812;12.872;2023-05-03T07:16:54;99020.56;;;8.80;58.51
5062;BME280;2351;50.812;12.872;2023-05-03T07:19:26;99029.44;;;8.79;58.11
5062;BME280;2351;50.812;12.872;2023-05-03T07:21:58;99021.53;;;8.93;58.61
5062;BME280;2351;50.812;12.872;2023-05-03T07:24:29;99022.25;;;9.10;57.53
5062;BME280;2351;50.812;12.872;2023-05-03T07:27:01;99010.81;;;9.24;56.64
5062;BME280;2351;50.812;12.872;2023-05-03T07:29:33;99024.72;;;8.98;53.83
5062;BME280;2351;50.812;12.872;2023-05-03T07:32:06;99019.25;;;9.01;55.08
5062;BME280;2351;50.812;12.872;2023-05-03T07:34:38;99015.09;;;8.83;55.63
5062;BME280;2351;50.812;12.872;2023-05-03T07:37:10;99020.38;;;8.54;56.11
5062;BME280;2351;50.812;12.872;2023-05-03T07:39:42;99016.34;;;8.32;56.11
5062;BME280;2351;50.812;12.872;2023-05-03T07:42:14;99016.75;;;8.26;56.89
5062;BME280;2351;50.812;12.872;2023-05-03T07:44:46;99008.63;;;8.29;57.01
5062;BME280;2351;50.812;12.872;2023-05-03T07:47:19;99015.47;;;8.48;57.81
5062;BME280;2351;50.812;12.872;2023-05-03T07:49:51;99008.78;;;9.00;59.07
5062;BME280;2351;50.812;12.872;2023-05-03T07:52:23;99003.31;;;9.45;58.87
5062;BME280;2351;50.812;12.872;2023-05-03T07:54:55;99007.19;;;10.20;59.89
5062;BME280;2351;50.812;12.872;2023-05-03T07:57:26;98996.06;;;10.55;55.10
5062;BME280;2351;50.812;12.872;2023-05-03T07:59:58;98998.03;;;10.77;54.68
5062;BME280;2351;50.812;12.872;2023-05-03T08:02:31;98997.28;;;10.62;51.47
5062;BME280;2351;50.812;12.872;2023-05-03T08:05:04;99005.78;;;10.42;51.83
5062;BME280;2351;50.812;12.872;2023-05-03T08:07:35;99001.22;;;9.90;51.88
5062;BME280;2351;50.812;12.872;2023-05-03T08:10:08;99008.19;;;9.78;53.27
5062;BME280;2351;50.812;12.872;2023-05-03T08:12:40;99006.88;;;9.16;53.98
5062;BME280;2351;50.812;12.872;2023-05-03T08:15:11;99007.16;;;9.12;54.58
5062;BME280;2351;50.812;12.872;2023-05-03T08:17:45;99008.97;;;8.97;55.41
5062;BME280;2351;50.812;12.872;2023-05-03T08:20:17;99010.00;;;9.09;54.76
5062;BME280;2351;50.812;12.872;2023-05-03T08:22:48;99016.22;;;8.79;54.60
5062;BME280;2351;50.812;12.872;2023-05-03T08:25:20;99021.28;;;8.38;55.94
5062;BME280;2351;50.812;12.872;2023-05-03T08:27:52;99016.06;;;8.22;55.83
5062;BME280;2351;50.812;12.872;2023-05-03T08:30:25;99021.75;;;8.45;56.98
5062;BME280;2351;50.812;12.872;2023-05-03T08:32:58;99005.69;;;8.64;55.90
5062;BME280;2351;50.812;12.872;2023-05-03T08:35:29;99006.81;;;8.89;56.57
5062;BME280;2351;50.812;12.872;2023-05-03T08:38:01;99008.50;;;9.04;55.58
5062;BME280;2351;50.812;12.872;2023-05-03T08:40:35;99000.72;;;9.16;55.82
5062;BME280;2351;50.812;12.872;2023-05-03T08:43:10;98994.84;;;9.67;56.35
5062;BME280;2351;50.812;12.872;2023-05-03T08:45:43;99004.38;;;9.83;54.12
5062;BME280;2351;50.812;12.872;2023-05-03T08:48:17;99007.72;;;10.12;52.72
5062;BME280;2351;50.812;12.872;2023-05-03T08:50:50;99001.69;;;10.10;51.76
5062;BME280;2351;50.812;12.872;2023-05-03T08:53:23;98995.41;;;10.51;53.14
5062;BME280;2351;50.812;12.872;2023-05-03T08:55:55;98997.94;;;10.66;49.60
5062;BME280;2351;50.812;12.872;2023-05-03T08:58:26;98993.28;;;10.57;49.43
5062;BME280;2351;50.812;12.872;2023-05-03T09:01:03;98996.47;;;10.75;52.14
5062;BME280;2351;50.812;12.872;2023-05-03T09:03:36;98998.06;;;11.14;50.46
5062;BME280;2351;50.812;12.872;2023-05-03T09:06:18;98993.25;;;10.82;50.25
5062;BME280;2351;50.812;12.872;2023-05-03T09:08:51;98993.06;;;10.85;51.61
5062;BME280;2351;50.812;12.872;2023-05-03T09:11:25;98986.44;;;11.04;48.53
5062;BME280;2351;50.812;12.872;2023-05-03T09:14:07;98986.47;;;10.78;49.02
5062;BME280;2351;50.812;12.872;2023-05-03T09:16:41;98989.81;;;10.56;51.46
5062;BME280;2351;50.812;12.872;2023-05-03T09:19:15;98994.09;;;10.83;51.21
5062;BME280;2351;50.812;12.872;2023-05-03T09:21:46;98993.25;;;10.95;49.89
5062;BME280;2351;50.812;12.872;2023-05-03T09:24:20;98988.66;;;10.47;49.18
5062;BME280;2351;50.812;12.872;2023-05-03T09:26:52;98989.72;;;10.04;51.29
5062;BME280;2351;50.812;12.872;2023-05-03T09:29:28;98984.91;;;9.71;52.49
5062;BME280;2351;50.812;12.872;2023-05-03T09:32:02;98983.56;;;9.78;52.37
5062;BME280;2351;50.812;12.872;2023-05-03T09:34:36;98987.72;;;10.21;52.44
5062;BME280;2351;50.812;12.872;2023-05-03T09:37:08;98993.78;;;10.36;50.98
5062;BME280;2351;50.812;12.872;2023-05-03T09:39:40;98978.53;;;10.78;52.71
5062;BME280;2351;50.812;12.872;2023-05-03T09:42:14;98977.75;;;11.02;50.36
5062;BME280;2351;50.812;12.872;2023-05-03T09:44:47;98975.63;;;11.07;50.51
5062;BME280;2351;50.812;12.872;2023-05-03T09:47:20;98972.28;;;10.79;50.50
5062;BME280;2351;50.812;12.872;2023-05-03T09:49:56;98968.06;;;10.77;49.03
5062;BME280;2351;50.812;12.872;2023-05-03T09:52:28;98973.38;;;10.77;50.47
5062;BME280;2351;50.812;12.872;2023-05-03T09:55:01;98978.16;;;11.09;51.24
5062;BME280;2351;50.812;12.872;2023-05-03T09:57:33;98968.88;;;11.27;50.24
5062;BME280;2351;50.812;12.872;2023-05-03T10:00:06;98966.69;;;11.21;49.03
5062;BME280;2351;50.812;12.872;2023-05-03T10:02:40;98967.84;;;10.80;48.37
5062;BME280;2351;50.812;12.872;2023-05-03T10:05:14;98971.00;;;10.85;48.07
5062;BME280;2351;50.812;12.872;2023-05-03T10:07:49;98966.19;;;10.66;47.90
5062;BME280;2351;50.812;12.872;2023-05-03T10:10:23;98966.56;;;10.85;49.31
5062;BME280;2351;50.812;12.872;2023-05-03T10:12:55;98960.31;;;10.87;47.11
5062;BME280;2351;50.812;12.872;2023-05-03T10:15:29;98955.13;;;10.85;48.36
5062;BME280;2351;50.812;12.872;2023-05-03T10:18:03;98952.75;;;11.06;48.61
5062;BME280;2351;50.812;12.872;2023-05-03T10:20:43;98959.00;;;11.05;48.29
5062;BME280;2351;50.812;12.872;2023-05-03T10:23:16;98958.19;;;11.29;48.77
5062;BME280;2351;50.812;12.872;2023-05-03T10:26:12;98949.78;;;11.35;46.58
5062;BME280;2351;50.812;12.872;2023-05-03T10:28:44;98953.44;;;11.45;46.00
5062;BME280;2351;50.812;12.872;2023-05-03T10:31:43;98943.63;;;11.10;45.68
5062;BME280;2351;50.812;12.872;2023-05-03T10:34:21;98945.53;;;11.57;47.04
5062;BME280;2351;50.812;12.872;2023-05-03T10:36:54;98950.97;;;11.31;46.36
5062;BME280;2351;50.812;12.872;2023-05-03T10:39:26;98949.78;;;11.35;46.26
5062;BME280;2351;50.812;12.872;2023-05-03T10:42:00;98941.47;;;11.15;46.44
5062;BME280;2351;50.812;12.872;2023-05-03T10:44:37;98936.69;;;11.21;47.13
5062;BME280;2351;50.812;12.872;2023-05-03T10:47:11;98940.38;;;11.31;46.50
5062;BME280;2351;50.812;12.872;2023-05-03T10:49:44;98938.03;;;11.26;47.12
5062;BME280;2351;50.812;12.872;2023-05-03T10:52:48;98936.91;;;11.42;47.87
5062;BME280;2351;50.812;12.872;2023-05-03T10:55:21;98935.66;;;11.59;47.36
5062;BME280;2351;50.812;12.872;2023-05-03T10:57:55;98944.91;;;11.89;47.47
5062;BME280;2351;50.812;12.872;2023-05-03T11:00:34;98929.94;;;12.12;47.06
5062;BME280;2351;50.812;12.872;2023-05-03T11:03:22;98926.84;;;11.94;48.03
5062;BME280;2351;50.812;12.872;2023-05-03T11:05:59;98926.34;;;12.25;47.61
5062;BME280;2351;50.812;12.872;2023-05-03T11:08:33;98935.34;;;11.99;45.84
5062;BME280;2351;50.812;12.872;2023-05-03T11:11:06;98935.13;;;12.14;46.17
5062;BME280;2351;50.812;12.872;2023-05-03T11:13:39;98928.34;;;12.10;45.40
5062;BME280;2351;50.812;12.872;2023-05-03T11:16:10;98930.34;;;12.42;45.91
5062;BME280;2351;50.812;12.872;2023-05-03T11:18:42;98936.72;;;12.73;43.33
5062;BME280;2351;50.812;12.872;2023-05-03T11:21:15;98930.75;;;13.04;45.15
5062;BME280;2351;50.812;12.872;2023-05-03T11:23:48;98929.44;;;13.53;44.07
5062;BME280;2351;50.812;12.872;2023-05-03T11:26:20;98928.13;;;13.48;43.05
5062;BME280;2351;50.812;12.872;2023-05-03T11:28:55;98930.72;;;13.26;41.62
5062;BME280;2351;50.812;12.872;2023-05-03T11:31:27;98933.38;;;13.15;42.48
5062;BME280;2351;50.812;12.872;2023-05-03T11:33:58;98927.63;;;12.99;43.18
5062;BME280;2351;50.812;12.872;2023-05-03T11:36:31;98927.06;;;12.61;44.26
5062;BME280;2351;50.812;12.872;2023-05-03T11:39:04;98918.41;;;13.14;44.46
5062;BME280;2351;50.812;12.872;2023-05-03T11:41:36;98920.63;;;13.09;43.80
5062;BME280;2351;50.812;12.872;2023-05-03T11:44:08;98928.44;;;13.10;42.88
5062;BME280;2351;50.812;12.872;2023-05-03T11:46:40;98925.22;;;13.51;44.52
5062;BME280;2351;50.812;12.872;2023-05-03T11:49:16;98924.50;;;13.49;41.63
5062;BME280;2351;50.812;12.872;2023-05-03T11:51:48;98924.50;;;12.93;42.48
5062;BME280;2351;50.812;12.872;2023-05-03T11:54:23;98915.69;;;13.37;43.80
5062;BME280;2351;50.812;12.872;2023-05-03T11:56:57;98925.06;;;13.20;43.29
5062;BME280;2351;50.812;12.872;2023-05-03T11:59:36;98919.31;;;13.36;43.71
5062;BME280;2351;50.812;12.872;2023-05-03T12:02:10;98924.94;;;13.65;43.17
5062;BME280;2351;50.812;12.872;2023-05-03T12:04:43;98925.75;;;13.66;40.98
5062;BME280;2351;50.812;12.872;2023-05-03T12:07:14;98925.22;;;13.51;43.50
5062;BME280;2351;50.812;12.872;2023-05-03T12:09:47;98923.91;;;13.45;44.03
5062;BME280;2351;50.812;12.872;2023-05-03T12:12:19;98924.75;;;13.78;42.59
5062;BME280;2351;50.812;12.872;2023-05-03T12:14:55;98918.44;;;14.22;43.76
5062;BME280;2351;50.812;12.872;2023-05-03T12:17:34;98916.06;;;14.59;42.99
5062;BME280;2351;50.812;12.872;2023-05-03T12:20:13;98918.66;;;14.40;42.00
5062;BME280;2351;50.812;12.872;2023-05-03T12:22:47;98907.34;;;14.57;40.35
5062;BME280;2351;50.812;12.872;2023-05-03T12:25:21;98902.06;;;14.05;41.85
5062;BME280;2351;50.812;12.872;2023-05-03T12:27:54;98909.53;;;13.69;41.77
5062;BME280;2351;50.812;12.872;2023-05-03T12:30:27;98895.19;;;13.60;43.46
5062;BME280;2351;50.812;12.872;2023-05-03T12:32:59;98895.53;;;13.67;42.97
5062;BME280;2351;50.812;12.872;2023-05-03T12:35:31;98902.13;;;13.40;43.77
5062;BME280;2351;50.812;12.872;2023-05-03T12:38:02;98901.03;;;13.54;43.68
5062;BME280;2351;50.812;12.872;2023-05-03T12:40:37;98894.34;;;13.60;43.82
5062;BME280;2351;50.812;12.872;2023-05-03T12:43:10;98888.50;;;14.08;43.38
5062;BME280;2351;50.812;12.872;2023-05-03T12:45:41;98893.91;;;13.76;42.48
5062;BME280;2351;50.812;12.872;2023-05-03T12:48:13;98894.75;;;13.76;42.21
5062;BME280;2351;50.812;12.872;2023-05-03T12:50:45;98896.03;;;13.61;42.63
5062;BME280;2351;50.812;12.872;2023-05-03T12:53:16;98892.81;;;13.78;43.26
5062;BME280;2351;50.812;12.872;2023-05-03T12:55:49;98897.69;;;13.73;43.19
5062;BME280;2351;50.812;12.872;2023-05-03T12:58:21;98898.69;;;13.61;42.37
5062;BME280;2351;50.812;12.872;2023-05-03T13:00:53;98897.09;;;13.91;43.13
5062;BME280;2351;50.812;12.872;2023-05-03T13:03:25;98899.13;;;13.77;42.97
5062;BME280;2351;50.812;12.872;2023-05-03T13:05:57;98888.84;;;13.40;43.55
5062;BME280;2351;50.812;12.872;2023-05-03T13:08:28;98892.72;;;13.36;44.29
5062;BME280;2351;50.812;12.872;2023-05-03T13:11:01;98883.63;;;13.50;43.65
5062;BME280;2351;50.812;12.872;2023-05-03T13:13:33;98875.84;;;14.00;44.64
5062;BME280;2351;50.812;12.872;2023-05-03T13:16:05;98879.88;;;13.95;43.32
5062;BME280;2351;50.812;12.872;2023-05-03T13:18:37;98880.88;;;13.51;45.84
5062;BME280;2351;50.812;12.872;2023-05-03T13:21:09;98875.41;;;13.53;44.41
5062;BME280;2351;50.812;12.872;2023-05-03T13:23:41;98876.56;;;13.28;44.64
5062;BME280;2351;50.812;12.872;2023-05-03T13:26:14;98873.38;;;13.45;45.64
5062;BME280;2351;50.812;12.872;2023-05-03T13:28:46;98862.50;;;13.48;45.87
5062;BME280;2351;50.812;12.872;2023-05-03T13:31:17;98863.53;;;13.57;45.45
5062;BME280;2351;50.812;12.872;2023-05-03T13:33:50;98857.31;;;13.35;44.66
5062;BME280;2351;50.812;12.872;2023-05-03T13:36:23;98863.31;;;13.49;44.81
5062;BME280;2351;50.812;12.872;2023-05-03T13:38:56;98867.09;;;13.89;44.95
5062;BME280;2351;50.812;12.872;2023-05-03T13:41:29;98855.69;;;13.98;43.77
5062;BME280;2351;50.812;12.872;2023-05-03T13:44:01;98860.41;;;13.94;44.32
5062;BME280;2351;50.812;12.872;2023-05-03T13:46:34;98852.34;;;14.06;43.64
5062;BME280;2351;50.812;12.872;2023-05-03T13:49:07;98853.44;;;14.03;43.67